PWSweather.com
Personal Weather Stations
Station Observations
HELOTES
Helotes Park Terrace, Helotes, TX 78023

Helotes Park TerraceHelotes, TX 78023

Lat: 29.57, Lon: -98.68

Elevation: 1060

Station Type: Ambient Weather WS-1090

Latest ConditionsUpdated 6:05:36 PM CST Friday, Mar 6, 2015
Currently Today's Max Today's Min Today's Average
Temperature 51.7°F10.9°C 56.0°F13.3°C 30.6°F-0.8°C 40.8°F4.9°C
Dew Point 32.1°F0.1°C 34.3°F1.3°C 19.8°F-6.8°C 26.2°F-3.2°C
Winds 1.0 mph E1.6 kmh E 8.2 mph NE13.2 kmh NE - 3.1 mph 5.0 kmh
Wind Gusts 4.7 mph7.6 kmh 11.2 mph18.0 kmh - -
Humidity 47% 72% 41% 57%
Pressure 30.32 in1026.8 mb 30.48 in1032.2 mb 30.32 in1026.8 mb -
Hour Temp Dew Point Humidity Winds Wind Gusts Pressure Precip Precip Rate Daily Precip Total
06:05 PM 51.7°F10.9°C 32.1°F0.1°C 47% 1.0 mph E1.6 kmh E 4.7 mph7.6 kmh 30.32 in1026.8 mb 0.00 in0.0 mm 0.00 in/hr0.0 mm/hr 0.00 in0.0 mm
06:00 PM 51.8°F11.0°C 32.1°F0.1°C 47% 4.1 mph SE6.6 kmh SE 4.7 mph7.6 kmh 30.32 in1026.8 mb 0.00 in0.0 mm 0.00 in/hr0.0 mm/hr 0.00 in0.0 mm
05:55 PM 52.0°F11.1°C 32.3°F0.2°C 47% 1.5 mph E2.4 kmh E 3.4 mph5.5 kmh 30.32 in1026.8 mb 0.00 in0.0 mm 0.00 in/hr0.0 mm/hr 0.00 in0.0 mm
05:50 PM 52.2°F11.2°C 32.0°F0.0°C 46% 2.8 mph E4.5 kmh E 3.4 mph5.5 kmh 30.32 in1026.8 mb 0.00 in0.0 mm 0.00 in/hr0.0 mm/hr 0.00 in0.0 mm
05:45 PM 52.6°F11.4°C 32.2°F0.1°C 46% 3.3 mph SSE5.3 kmh SSE 6.0 mph9.7 kmh 30.32 in1026.8 mb 0.00 in0.0 mm 0.00 in/hr0.0 mm/hr 0.00 in0.0 mm
05:40 PM 52.6°F11.4°C 32.9°F0.5°C 47% 2.2 mph E3.5 kmh E 6.0 mph9.7 kmh 30.32 in1026.8 mb 0.00 in0.0 mm 0.00 in/hr0.0 mm/hr 0.00 in0.0 mm
05:35 PM 52.7°F11.5°C 32.4°F0.2°C 46% 3.2 mph E5.1 kmh E 6.0 mph9.7 kmh 30.32 in1026.8 mb 0.00 in0.0 mm 0.00 in/hr0.0 mm/hr 0.00 in0.0 mm
05:30 PM 52.9°F11.6°C 32.6°F0.3°C 46% 2.0 mph E3.2 kmh E 2.0 mph3.2 kmh 30.32 in1026.8 mb 0.00 in0.0 mm 0.00 in/hr0.0 mm/hr 0.00 in0.0 mm
05:25 PM 52.9°F11.6°C 32.6°F0.3°C 46% 1.3 mph ENE2.1 kmh ENE 1.8 mph2.9 kmh 30.32 in1026.8 mb 0.00 in0.0 mm 0.00 in/hr0.0 mm/hr 0.00 in0.0 mm
05:20 PM 53.1°F11.7°C 32.8°F0.4°C 46% 1.8 mph E2.9 kmh E 3.1 mph5.0 kmh 30.32 in1026.8 mb 0.00 in0.0 mm 0.00 in/hr0.0 mm/hr 0.00 in0.0 mm
05:15 PM 53.1°F11.7°C 32.8°F0.4°C 46% 0.2 mph NE0.3 kmh NE 4.0 mph6.4 kmh 30.32 in1026.8 mb 0.00 in0.0 mm 0.00 in/hr0.0 mm/hr 0.00 in0.0 mm
05:10 PM 53.3°F11.8°C 33.0°F0.6°C 46% 3.1 mph E5.0 kmh E 4.0 mph6.4 kmh 30.32 in1026.8 mb 0.00 in0.0 mm 0.00 in/hr0.0 mm/hr 0.00 in0.0 mm
05:05 PM 53.5°F11.9°C 32.5°F0.3°C 45% 3.9 mph NE6.3 kmh NE 4.3 mph6.9 kmh 30.32 in1026.8 mb 0.00 in0.0 mm 0.00 in/hr0.0 mm/hr 0.00 in0.0 mm
05:00 PM 53.5°F11.9°C 32.5°F0.3°C 45% 2.9 mph E4.7 kmh E 4.3 mph6.9 kmh 30.32 in1026.8 mb 0.00 in0.0 mm 0.00 in/hr0.0 mm/hr 0.00 in0.0 mm
04:55 PM 53.8°F12.1°C 32.3°F0.2°C 44% 1.2 mph E1.9 kmh E 4.3 mph6.9 kmh 30.32 in1026.8 mb 0.00 in0.0 mm 0.00 in/hr0.0 mm/hr 0.00 in0.0 mm
04:50 PM 54.0°F12.2°C 32.4°F0.2°C 44% 2.4 mph ENE3.9 kmh ENE 4.0 mph6.4 kmh 30.32 in1026.8 mb 0.00 in0.0 mm 0.00 in/hr0.0 mm/hr 0.00 in0.0 mm
04:45 PM 54.4°F12.4°C 33.3°F0.7°C 45% 3.4 mph ENE5.5 kmh ENE 5.8 mph9.3 kmh 30.32 in1026.8 mb 0.00 in0.0 mm 0.00 in/hr0.0 mm/hr 0.00 in0.0 mm
04:40 PM 54.4°F12.4°C 32.8°F0.4°C 44% 3.1 mph ENE5.0 kmh ENE 5.8 mph9.3 kmh 30.32 in1026.8 mb 0.00 in0.0 mm 0.00 in/hr0.0 mm/hr 0.00 in0.0 mm
04:35 PM 54.4°F12.4°C 32.8°F0.4°C 44% 5.8 mph ENE9.3 kmh ENE 5.8 mph9.3 kmh 30.32 in1026.8 mb 0.00 in0.0 mm 0.00 in/hr0.0 mm/hr 0.00 in0.0 mm
04:30 PM 54.4°F12.4°C 32.8°F0.4°C 44% 1.1 mph ENE1.8 kmh ENE 4.0 mph6.4 kmh 30.32 in1026.8 mb 0.00 in0.0 mm 0.00 in/hr0.0 mm/hr 0.00 in0.0 mm
04:25 PM 54.4°F12.4°C 32.8°F0.4°C 44% 2.5 mph ESE4.0 kmh ESE 6.9 mph11.1 kmh 30.33 in1027.1 mb 0.00 in0.0 mm 0.00 in/hr0.0 mm/hr 0.00 in0.0 mm
04:20 PM 54.4°F12.4°C 32.8°F0.4°C 44% 3.4 mph ENE5.5 kmh ENE 6.9 mph11.1 kmh 30.33 in1027.1 mb 0.00 in0.0 mm 0.00 in/hr0.0 mm/hr 0.00 in0.0 mm
04:15 PM 54.4°F12.4°C 33.3°F0.7°C 45% 6.9 mph SSE11.1 kmh SSE 6.9 mph11.1 kmh 30.33 in1027.1 mb 0.00 in0.0 mm 0.00 in/hr0.0 mm/hr 0.00 in0.0 mm
04:10 PM 54.4°F12.4°C 32.8°F0.4°C 44% 5.6 mph S9.0 kmh S 5.6 mph9.0 kmh 30.33 in1027.1 mb 0.00 in0.0 mm 0.00 in/hr0.0 mm/hr 0.00 in0.0 mm
04:05 PM 54.4°F12.4°C 32.2°F0.1°C 43% 4.9 mph E7.9 kmh E 5.1 mph8.2 kmh 30.33 in1027.1 mb 0.00 in0.0 mm 0.00 in/hr0.0 mm/hr 0.00 in0.0 mm
04:00 PM 54.7°F12.6°C 32.5°F0.3°C 43% 1.3 mph E2.1 kmh E 4.3 mph6.9 kmh 30.33 in1027.1 mb 0.00 in0.0 mm 0.00 in/hr0.0 mm/hr 0.00 in0.0 mm
03:55 PM 54.7°F12.6°C 32.0°F0.0°C 42% 4.0 mph E6.4 kmh E 4.3 mph6.9 kmh 30.33 in1027.1 mb 0.00 in0.0 mm 0.00 in/hr0.0 mm/hr 0.00 in0.0 mm
03:50 PM 54.7°F12.6°C 33.1°F0.6°C 44% 1.4 mph WSW2.3 kmh WSW 4.0 mph6.4 kmh 30.33 in1027.1 mb 0.00 in0.0 mm 0.00 in/hr0.0 mm/hr 0.00 in0.0 mm
03:45 PM 54.9°F12.7°C 32.1°F0.1°C 42% 2.4 mph ESE3.9 kmh ESE 4.0 mph6.4 kmh 30.33 in1027.1 mb 0.00 in0.0 mm 0.00 in/hr0.0 mm/hr 0.00 in0.0 mm
03:40 PM 55.1°F12.8°C 33.4°F0.8°C 44% 3.6 mph SE5.8 kmh SE 4.3 mph6.9 kmh 30.33 in1027.1 mb 0.00 in0.0 mm 0.00 in/hr0.0 mm/hr 0.00 in0.0 mm
03:35 PM 54.9°F12.7°C 33.2°F0.7°C 44% 2.5 mph SSE4.0 kmh SSE 4.3 mph6.9 kmh 30.33 in1027.1 mb 0.00 in0.0 mm 0.00 in/hr0.0 mm/hr 0.00 in0.0 mm
03:30 PM 54.7°F12.6°C 33.1°F0.6°C 44% 4.3 mph ENE6.9 kmh ENE 5.6 mph9.0 kmh 30.33 in1027.1 mb 0.00 in0.0 mm 0.00 in/hr0.0 mm/hr 0.00 in0.0 mm
03:25 PM 54.9°F12.7°C 32.7°F0.4°C 43% 4.7 mph E7.6 kmh E 8.1 mph13.0 kmh 30.33 in1027.1 mb 0.00 in0.0 mm 0.00 in/hr0.0 mm/hr 0.00 in0.0 mm
03:20 PM 55.1°F12.8°C 31.8°F-0.1°C 41% 3.7 mph ENE6.0 kmh ENE 8.1 mph13.0 kmh 30.33 in1027.1 mb 0.00 in0.0 mm 0.00 in/hr0.0 mm/hr 0.00 in0.0 mm
03:15 PM 55.8°F13.2°C 34.1°F1.2°C 44% 8.1 mph NNE13.0 kmh NNE 8.1 mph13.0 kmh 30.33 in1027.1 mb 0.00 in0.0 mm 0.00 in/hr0.0 mm/hr 0.00 in0.0 mm
03:10 PM 55.8°F13.2°C 34.1°F1.2°C 44% 1.7 mph NE2.7 kmh NE 2.9 mph4.7 kmh 30.34 in1027.4 mb 0.00 in0.0 mm 0.00 in/hr0.0 mm/hr 0.00 in0.0 mm
03:05 PM 56.0°F13.3°C 33.7°F0.9°C 43% 1.7 mph NE2.7 kmh NE 6.3 mph10.1 kmh 30.34 in1027.4 mb 0.00 in0.0 mm 0.00 in/hr0.0 mm/hr 0.00 in0.0 mm
03:00 PM 55.4°F13.0°C 34.3°F1.3°C 45% 4.3 mph ESE6.9 kmh ESE 6.3 mph10.1 kmh 30.34 in1027.4 mb 0.00 in0.0 mm 0.00 in/hr0.0 mm/hr 0.00 in0.0 mm
02:55 PM 54.4°F12.4°C 31.7°F-0.2°C 42% 2.0 mph NNE3.2 kmh NNE 3.4 mph5.5 kmh 30.34 in1027.4 mb 0.00 in0.0 mm 0.00 in/hr0.0 mm/hr 0.00 in0.0 mm
02:50 PM 54.4°F12.4°C 32.2°F0.1°C 43% 2.9 mph 4.7 kmh 3.4 mph5.5 kmh 30.34 in1027.4 mb 0.00 in0.0 mm 0.00 in/hr0.0 mm/hr 0.00 in0.0 mm
02:45 PM 54.4°F12.4°C 32.8°F0.4°C 44% 3.4 mph 5.5 kmh 6.5 mph10.5 kmh 30.34 in1027.4 mb 0.00 in0.0 mm 0.00 in/hr0.0 mm/hr 0.00 in0.0 mm
02:40 PM 54.2°F12.3°C 32.6°F0.3°C 44% 2.5 mph ENE4.0 kmh ENE 6.5 mph10.5 kmh 30.34 in1027.4 mb 0.00 in0.0 mm 0.00 in/hr0.0 mm/hr 0.00 in0.0 mm
02:35 PM 53.6°F12.0°C 32.7°F0.4°C 45% 6.5 mph NE10.5 kmh NE 6.5 mph10.5 kmh 30.34 in1027.4 mb 0.00 in0.0 mm 0.00 in/hr0.0 mm/hr 0.00 in0.0 mm
02:30 PM 53.3°F11.8°C 32.3°F0.2°C 45% 2.0 mph NE3.2 kmh NE 4.5 mph7.2 kmh 30.34 in1027.4 mb 0.00 in0.0 mm 0.00 in/hr0.0 mm/hr 0.00 in0.0 mm
02:25 PM 53.3°F11.8°C 31.8°F-0.1°C 44% 2.9 mph NE4.7 kmh NE 4.5 mph7.2 kmh 30.35 in1027.8 mb 0.00 in0.0 mm 0.00 in/hr0.0 mm/hr 0.00 in0.0 mm
02:20 PM 52.9°F11.6°C 30.9°F-0.6°C 43% 4.0 mph E6.4 kmh E 4.0 mph6.4 kmh 30.35 in1027.8 mb 0.00 in0.0 mm 0.00 in/hr0.0 mm/hr 0.00 in0.0 mm
02:15 PM 53.1°F11.7°C 31.1°F-0.5°C 43% 1.6 mph NE2.6 kmh NE 4.5 mph7.2 kmh 30.35 in1027.8 mb 0.00 in0.0 mm 0.00 in/hr0.0 mm/hr 0.00 in0.0 mm
02:10 PM 53.6°F12.0°C 32.1°F0.1°C 44% 1.0 mph NE1.6 kmh NE 4.7 mph7.6 kmh 30.35 in1027.8 mb 0.00 in0.0 mm 0.00 in/hr0.0 mm/hr 0.00 in0.0 mm
02:05 PM 53.3°F11.8°C 33.0°F0.6°C 46% 4.2 mph E6.8 kmh E 4.7 mph7.6 kmh 30.36 in1028.1 mb 0.00 in0.0 mm 0.00 in/hr0.0 mm/hr 0.00 in0.0 mm
02:00 PM 52.4°F11.3°C 31.5°F-0.3°C 45% 4.7 mph NNE7.6 kmh NNE 4.7 mph7.6 kmh 30.36 in1028.1 mb 0.00 in0.0 mm 0.00 in/hr0.0 mm/hr 0.00 in0.0 mm
01:55 PM 52.2°F11.2°C 30.8°F-0.7°C 44% 2.0 mph SE3.2 kmh SE 3.8 mph6.1 kmh 30.36 in1028.1 mb 0.00 in0.0 mm 0.00 in/hr0.0 mm/hr 0.00 in0.0 mm
01:50 PM 52.2°F11.2°C 30.8°F-0.7°C 44% 1.3 mph N2.1 kmh N 5.1 mph8.2 kmh 30.37 in1028.4 mb 0.00 in0.0 mm 0.00 in/hr0.0 mm/hr 0.00 in0.0 mm
01:45 PM 51.8°F11.0°C 30.5°F-0.8°C 44% 3.8 mph ESE6.1 kmh ESE 7.4 mph11.9 kmh 30.37 in1028.4 mb 0.00 in0.0 mm 0.00 in/hr0.0 mm/hr 0.00 in0.0 mm
01:40 PM 51.5°F10.8°C 30.7°F-0.7°C 45% 5.1 mph NNE8.2 kmh NNE 7.4 mph11.9 kmh 30.38 in1028.8 mb 0.00 in0.0 mm 0.00 in/hr0.0 mm/hr 0.00 in0.0 mm
01:35 PM 51.5°F10.8°C 30.2°F-1.0°C 44% 1.1 mph NE1.8 kmh NE 3.4 mph5.5 kmh 30.38 in1028.8 mb 0.00 in0.0 mm 0.00 in/hr0.0 mm/hr 0.00 in0.0 mm
01:30 PM 51.7°F10.9°C 30.3°F-0.9°C 44% 2.9 mph N4.7 kmh N 3.8 mph6.1 kmh 30.38 in1028.8 mb 0.00 in0.0 mm 0.00 in/hr0.0 mm/hr 0.00 in0.0 mm
01:25 PM 51.5°F10.8°C 30.2°F-1.0°C 44% 2.0 mph 3.2 kmh 4.7 mph7.6 kmh 30.38 in1028.8 mb 0.00 in0.0 mm 0.00 in/hr0.0 mm/hr 0.00 in0.0 mm
01:20 PM 51.3°F10.7°C 30.6°F-0.8°C 45% 4.5 mph SE7.2 kmh SE 4.7 mph7.6 kmh 30.39 in1029.1 mb 0.00 in0.0 mm 0.00 in/hr0.0 mm/hr 0.00 in0.0 mm
01:15 PM 51.1°F10.6°C 30.4°F-0.9°C 45% 3.1 mph NE5.0 kmh NE 5.4 mph8.7 kmh 30.39 in1029.1 mb 0.00 in0.0 mm 0.00 in/hr0.0 mm/hr 0.00 in0.0 mm
01:10 PM 51.3°F10.7°C 30.6°F-0.8°C 45% 4.4 mph NNE7.1 kmh NNE 6.0 mph9.7 kmh 30.40 in1029.5 mb 0.00 in0.0 mm 0.00 in/hr0.0 mm/hr 0.00 in0.0 mm
01:05 PM 50.8°F10.4°C 31.2°F-0.4°C 47% 3.6 mph 5.8 kmh 7.6 mph12.2 kmh 30.40 in1029.5 mb 0.00 in0.0 mm 0.00 in/hr0.0 mm/hr 0.00 in0.0 mm
01:00 PM 50.8°F10.4°C 30.6°F-0.8°C 46% 6.2 mph N10.0 kmh N 7.6 mph12.2 kmh 30.41 in1029.8 mb 0.00 in0.0 mm 0.00 in/hr0.0 mm/hr 0.00 in0.0 mm
12:55 PM 50.2°F10.1°C 30.2°F-1.0°C 46% 2.0 mph 3.2 kmh 4.9 mph7.9 kmh 30.41 in1029.8 mb 0.00 in0.0 mm 0.00 in/hr0.0 mm/hr 0.00 in0.0 mm
12:50 PM 50.2°F10.1°C 30.2°F-1.0°C 46% 4.5 mph WSW7.2 kmh WSW 4.9 mph7.9 kmh 30.41 in1029.8 mb 0.00 in0.0 mm 0.00 in/hr0.0 mm/hr 0.00 in0.0 mm
12:45 PM 49.9°F9.9°C 29.3°F-1.5°C 45% 2.0 mph N3.2 kmh N 2.5 mph4.0 kmh 30.42 in1030.1 mb 0.00 in0.0 mm 0.00 in/hr0.0 mm/hr 0.00 in0.0 mm
12:40 PM 49.3°F9.6°C 29.4°F-1.4°C 46% 1.6 mph W2.6 kmh W 4.5 mph7.2 kmh 30.42 in1030.1 mb 0.00 in0.0 mm 0.00 in/hr0.0 mm/hr 0.00 in0.0 mm
12:35 PM 49.3°F9.6°C 29.4°F-1.4°C 46% 2.5 mph N4.0 kmh N 5.6 mph9.0 kmh 30.42 in1030.1 mb 0.00 in0.0 mm 0.00 in/hr0.0 mm/hr 0.00 in0.0 mm
12:30 PM 49.5°F9.7°C 29.4°F-1.4°C 46% 3.2 mph NE5.1 kmh NE 5.6 mph9.0 kmh 30.42 in1030.1 mb 0.00 in0.0 mm 0.00 in/hr0.0 mm/hr 0.00 in0.0 mm
12:25 PM 49.9°F9.9°C 29.8°F-1.2°C 46% 3.7 mph NE6.0 kmh NE 6.7 mph10.8 kmh 30.43 in1030.5 mb 0.00 in0.0 mm 0.00 in/hr0.0 mm/hr 0.00 in0.0 mm
12:20 PM 49.7°F9.8°C 30.3°F-0.9°C 47% 3.3 mph SSE5.3 kmh SSE 7.6 mph12.2 kmh 30.43 in1030.5 mb 0.00 in0.0 mm 0.00 in/hr0.0 mm/hr 0.00 in0.0 mm
12:15 PM 49.3°F9.6°C 30.4°F-0.9°C 48% 6.9 mph NNE11.1 kmh NNE 7.6 mph12.2 kmh 30.43 in1030.5 mb 0.00 in0.0 mm 0.00 in/hr0.0 mm/hr 0.00 in0.0 mm
12:10 PM 49.0°F9.4°C 30.6°F-0.8°C 49% 1.9 mph E3.1 kmh E 5.6 mph9.0 kmh 30.43 in1030.5 mb 0.00 in0.0 mm 0.00 in/hr0.0 mm/hr 0.00 in0.0 mm
12:05 PM 48.8°F9.3°C 29.4°F-1.4°C 47% 3.6 mph S5.8 kmh S 5.6 mph9.0 kmh 30.44 in1030.8 mb 0.00 in0.0 mm 0.00 in/hr0.0 mm/hr 0.00 in0.0 mm
12:00 PM 49.0°F9.4°C 30.6°F-0.8°C 49% 1.8 mph NNE2.9 kmh NNE 6.5 mph10.5 kmh 30.44 in1030.8 mb 0.00 in0.0 mm 0.00 in/hr0.0 mm/hr 0.00 in0.0 mm
11:55 AM 48.6°F9.2°C 30.8°F-0.7°C 50% 5.5 mph NE8.9 kmh NE 6.5 mph10.5 kmh 30.44 in1030.8 mb 0.00 in0.0 mm 0.00 in/hr0.0 mm/hr 0.00 in0.0 mm
11:50 AM 48.1°F8.9°C 29.7°F-1.3°C 49% 2.9 mph SW4.7 kmh SW 6.9 mph11.1 kmh 30.45 in1031.2 mb 0.00 in0.0 mm 0.00 in/hr0.0 mm/hr 0.00 in0.0 mm
11:45 AM 47.7°F8.7°C 30.4°F-0.9°C 51% 3.5 mph SE5.6 kmh SE 6.9 mph11.1 kmh 30.45 in1031.2 mb 0.00 in0.0 mm 0.00 in/hr0.0 mm/hr 0.00 in0.0 mm
11:40 AM 47.0°F8.3°C 28.7°F-1.8°C 49% 4.4 mph NE7.1 kmh NE 6.3 mph10.1 kmh 30.45 in1031.2 mb 0.00 in0.0 mm 0.00 in/hr0.0 mm/hr 0.00 in0.0 mm
11:35 AM 47.0°F8.3°C 28.7°F-1.8°C 49% 1.9 mph NNW3.1 kmh NNW 5.4 mph8.7 kmh 30.45 in1031.2 mb 0.00 in0.0 mm 0.00 in/hr0.0 mm/hr 0.00 in0.0 mm
11:30 AM 47.2°F8.4°C 29.9°F-1.2°C 51% 5.3 mph NE8.5 kmh NE 6.7 mph10.8 kmh 30.46 in1031.5 mb 0.00 in0.0 mm 0.00 in/hr0.0 mm/hr 0.00 in0.0 mm
11:25 AM 46.4°F8.0°C 29.7°F-1.3°C 52% 1.8 mph SSE2.9 kmh SSE 6.9 mph11.1 kmh 30.46 in1031.5 mb 0.00 in0.0 mm 0.00 in/hr0.0 mm/hr 0.00 in0.0 mm
11:20 AM 46.3°F7.9°C 29.5°F-1.4°C 52% 6.2 mph NE10.0 kmh NE 6.9 mph11.1 kmh 30.46 in1031.5 mb 0.00 in0.0 mm 0.00 in/hr0.0 mm/hr 0.00 in0.0 mm
11:15 AM 45.7°F7.6°C 28.6°F-1.9°C 51% 1.6 mph ENE2.6 kmh ENE 4.5 mph7.2 kmh 30.46 in1031.5 mb 0.00 in0.0 mm 0.00 in/hr0.0 mm/hr 0.00 in0.0 mm
11:10 AM 45.0°F7.2°C 28.9°F-1.7°C 53% 1.6 mph E2.6 kmh E 3.1 mph5.0 kmh 30.46 in1031.5 mb 0.00 in0.0 mm 0.00 in/hr0.0 mm/hr 0.00 in0.0 mm
11:05 AM 45.0°F7.2°C 28.9°F-1.7°C 53% 1.8 mph NE2.9 kmh NE 5.8 mph9.3 kmh 30.46 in1031.5 mb 0.00 in0.0 mm 0.00 in/hr0.0 mm/hr 0.00 in0.0 mm
11:00 AM 44.5°F6.9°C 28.4°F-2.0°C 53% 3.1 mph NE5.0 kmh NE 6.3 mph10.1 kmh 30.46 in1031.5 mb 0.00 in0.0 mm 0.00 in/hr0.0 mm/hr 0.00 in0.0 mm
10:55 AM 43.9°F6.6°C 27.9°F-2.3°C 53% 5.5 mph NE8.9 kmh NE 6.3 mph10.1 kmh 30.47 in1031.8 mb 0.00 in0.0 mm 0.00 in/hr0.0 mm/hr 0.00 in0.0 mm
10:50 AM 43.2°F6.2°C 27.2°F-2.7°C 53% 6.3 mph NNE10.1 kmh NNE 6.7 mph10.8 kmh 30.47 in1031.8 mb 0.00 in0.0 mm 0.00 in/hr0.0 mm/hr 0.00 in0.0 mm
10:45 AM 43.2°F6.2°C 27.2°F-2.7°C 53% 2.0 mph NNE3.2 kmh NNE 6.7 mph10.8 kmh 30.47 in1031.8 mb 0.00 in0.0 mm 0.00 in/hr0.0 mm/hr 0.00 in0.0 mm
10:40 AM 42.8°F6.0°C 27.7°F-2.4°C 55% 6.1 mph NE9.8 kmh NE 6.7 mph10.8 kmh 30.47 in1031.8 mb 0.00 in0.0 mm 0.00 in/hr0.0 mm/hr 0.00 in0.0 mm
10:35 AM 42.3°F5.7°C 27.6°F-2.4°C 56% 4.7 mph ENE7.6 kmh ENE 6.5 mph10.5 kmh 30.47 in1031.8 mb 0.00 in0.0 mm 0.00 in/hr0.0 mm/hr 0.00 in0.0 mm
10:30 AM 41.8°F5.4°C 26.7°F-2.9°C 55% 1.5 mph N2.4 kmh N 6.7 mph10.8 kmh 30.47 in1031.8 mb 0.00 in0.0 mm 0.00 in/hr0.0 mm/hr 0.00 in0.0 mm
10:25 AM 41.4°F5.2°C 26.8°F-2.9°C 56% 6.0 mph N9.7 kmh N 6.7 mph10.8 kmh 30.47 in1031.8 mb 0.00 in0.0 mm 0.00 in/hr0.0 mm/hr 0.00 in0.0 mm
10:20 AM 41.4°F5.2°C 26.8°F-2.9°C 56% 2.4 mph NE3.9 kmh NE 4.7 mph7.6 kmh 30.47 in1031.8 mb 0.00 in0.0 mm 0.00 in/hr0.0 mm/hr 0.00 in0.0 mm
10:15 AM 41.2°F5.1°C 26.7°F-2.9°C 56% 1.6 mph SSE2.6 kmh SSE 3.4 mph5.5 kmh 30.48 in1032.2 mb 0.00 in0.0 mm 0.00 in/hr0.0 mm/hr 0.00 in0.0 mm
10:10 AM 41.0°F5.0°C 26.9°F-2.8°C 57% 2.3 mph NE3.7 kmh NE 3.1 mph5.0 kmh 30.48 in1032.2 mb 0.00 in0.0 mm 0.00 in/hr0.0 mm/hr 0.00 in0.0 mm
10:05 AM 40.5°F4.7°C 26.8°F-2.9°C 58% 2.3 mph ENE3.7 kmh ENE 5.4 mph8.7 kmh 30.48 in1032.2 mb 0.00 in0.0 mm 0.00 in/hr0.0 mm/hr 0.00 in0.0 mm
10:00 AM 40.0°F4.4°C 26.7°F-2.9°C 59% 2.4 mph E3.9 kmh E 6.3 mph10.1 kmh 30.48 in1032.2 mb 0.00 in0.0 mm 0.00 in/hr0.0 mm/hr 0.00 in0.0 mm
09:55 AM 39.4°F4.1°C 25.4°F-3.7°C 57% 2.0 mph NE3.2 kmh NE 6.5 mph10.5 kmh 30.48 in1032.2 mb 0.00 in0.0 mm 0.00 in/hr0.0 mm/hr 0.00 in0.0 mm
09:50 AM 39.4°F4.1°C 26.2°F-3.2°C 59% 6.3 mph ENE10.1 kmh ENE 6.5 mph10.5 kmh 30.48 in1032.2 mb 0.00 in0.0 mm 0.00 in/hr0.0 mm/hr 0.00 in0.0 mm
09:45 AM 39.2°F4.0°C 26.5°F-3.1°C 60% 2.5 mph NE4.0 kmh NE 4.3 mph6.9 kmh 30.48 in1032.2 mb 0.00 in0.0 mm 0.00 in/hr0.0 mm/hr 0.00 in0.0 mm
09:40 AM 39.2°F4.0°C 26.8°F-2.9°C 61% 1.4 mph E2.3 kmh E 5.4 mph8.7 kmh 30.48 in1032.2 mb 0.00 in0.0 mm 0.00 in/hr0.0 mm/hr 0.00 in0.0 mm
09:35 AM 39.1°F3.9°C 27.1°F-2.7°C 62% 3.0 mph NE4.8 kmh NE 6.0 mph9.7 kmh 30.47 in1031.8 mb 0.00 in0.0 mm 0.00 in/hr0.0 mm/hr 0.00 in0.0 mm
09:30 AM 38.5°F3.6°C 26.6°F-3.0°C 62% 2.7 mph N4.3 kmh N 6.9 mph11.1 kmh 30.48 in1032.2 mb 0.00 in0.0 mm 0.00 in/hr0.0 mm/hr 0.00 in0.0 mm
09:25 AM 37.8°F3.2°C 25.6°F-3.6°C 61% 2.5 mph N4.0 kmh N 6.9 mph11.1 kmh 30.47 in1031.8 mb 0.00 in0.0 mm 0.00 in/hr0.0 mm/hr 0.00 in0.0 mm
09:20 AM 37.4°F3.0°C 25.2°F-3.8°C 61% 5.9 mph NNE9.5 kmh NNE 11.2 mph18.0 kmh 30.48 in1032.2 mb 0.00 in0.0 mm 0.00 in/hr0.0 mm/hr 0.00 in0.0 mm
09:15 AM 37.1°F2.8°C 25.3°F-3.7°C 62% 5.7 mph ENE9.2 kmh ENE 11.2 mph18.0 kmh 30.47 in1031.8 mb 0.00 in0.0 mm 0.00 in/hr0.0 mm/hr 0.00 in0.0 mm
09:10 AM 36.9°F2.7°C 25.1°F-3.8°C 62% 8.2 mph NE13.2 kmh NE 11.2 mph18.0 kmh 30.47 in1031.8 mb 0.00 in0.0 mm 0.00 in/hr0.0 mm/hr 0.00 in0.0 mm
09:05 AM 36.4°F2.4°C 24.6°F-4.1°C 62% 3.2 mph NNE5.1 kmh NNE 7.8 mph12.6 kmh 30.47 in1031.8 mb 0.00 in0.0 mm 0.00 in/hr0.0 mm/hr 0.00 in0.0 mm
09:00 AM 36.0°F2.2°C 24.3°F-4.3°C 62% 4.7 mph NNE7.6 kmh NNE 6.0 mph9.7 kmh 30.47 in1031.8 mb 0.00 in0.0 mm 0.00 in/hr0.0 mm/hr 0.00 in0.0 mm
08:55 AM 35.6°F2.0°C 23.9°F-4.5°C 62% 3.7 mph E6.0 kmh E 5.8 mph9.3 kmh 30.47 in1031.8 mb 0.00 in0.0 mm 0.00 in/hr0.0 mm/hr 0.00 in0.0 mm
08:50 AM 35.3°F1.8°C 23.6°F-4.7°C 62% 5.5 mph E8.9 kmh E 7.6 mph12.2 kmh 30.47 in1031.8 mb 0.00 in0.0 mm 0.00 in/hr0.0 mm/hr 0.00 in0.0 mm
08:45 AM 34.7°F1.5°C 23.0°F-5.0°C 62% 5.5 mph N8.9 kmh N 7.6 mph12.2 kmh 30.46 in1031.5 mb 0.00 in0.0 mm 0.00 in/hr0.0 mm/hr 0.00 in0.0 mm
08:40 AM 34.4°F1.3°C 22.7°F-5.2°C 62% 2.2 mph N3.5 kmh N 8.3 mph13.4 kmh 30.46 in1031.5 mb 0.00 in0.0 mm 0.00 in/hr0.0 mm/hr 0.00 in0.0 mm
08:35 AM 34.0°F1.1°C 22.3°F-5.4°C 62% 6.0 mph 9.7 kmh 8.3 mph13.4 kmh 30.46 in1031.5 mb 0.00 in0.0 mm 0.00 in/hr0.0 mm/hr 0.00 in0.0 mm
08:30 AM 33.5°F0.8°C 22.1°F-5.5°C 63% 2.3 mph NE3.7 kmh NE 4.5 mph7.2 kmh 30.46 in1031.5 mb 0.00 in0.0 mm 0.00 in/hr0.0 mm/hr 0.00 in0.0 mm
08:25 AM 33.1°F0.6°C 21.9°F-5.6°C 63% 3.9 mph 6.3 kmh 5.4 mph8.7 kmh 30.46 in1031.5 mb 0.00 in0.0 mm 0.00 in/hr0.0 mm/hr 0.00 in0.0 mm
08:20 AM 32.8°F0.4°C 21.5°F-5.8°C 63% 4.5 mph NNE7.2 kmh NNE 6.9 mph11.1 kmh 30.45 in1031.2 mb 0.00 in0.0 mm 0.00 in/hr0.0 mm/hr 0.00 in0.0 mm
08:14 AM 32.6°F0.3°C 21.3°F-5.9°C 63% 2.9 mph 4.7 kmh 6.9 mph11.1 kmh 30.45 in1031.2 mb 0.00 in0.0 mm 0.00 in/hr0.0 mm/hr 0.00 in0.0 mm
08:10 AM 32.2°F0.1°C 21.4°F-5.9°C 64% 6.4 mph N10.3 kmh N 6.9 mph11.1 kmh 30.45 in1031.2 mb 0.00 in0.0 mm 0.00 in/hr0.0 mm/hr 0.00 in0.0 mm
08:04 AM 31.9°F-0.1°C 21.4°F-5.9°C 65% 4.0 mph N6.4 kmh N 6.3 mph10.1 kmh 30.45 in1031.2 mb 0.00 in0.0 mm 0.00 in/hr0.0 mm/hr 0.00 in0.0 mm
07:16 AM 30.6°F-0.8°C 20.2°F-6.6°C 65% 2.7 mph 4.3 kmh 3.1 mph5.0 kmh 30.43 in1030.5 mb 0.00 in0.0 mm 0.00 in/hr0.0 mm/hr 0.00 in0.0 mm
07:12 AM 30.6°F-0.8°C 20.2°F-6.6°C 65% 0.7 mph 1.1 kmh 5.1 mph8.2 kmh 30.42 in1030.1 mb 0.00 in0.0 mm 0.00 in/hr0.0 mm/hr 0.00 in0.0 mm
07:07 AM 30.6°F-0.8°C 20.2°F-6.6°C 65% 3.3 mph N5.3 kmh N 5.1 mph8.2 kmh 30.42 in1030.1 mb 0.00 in0.0 mm 0.00 in/hr0.0 mm/hr 0.00 in0.0 mm
07:02 AM 30.6°F-0.8°C 19.8°F-6.8°C 64% 2.9 mph 4.7 kmh 5.4 mph8.7 kmh 30.42 in1030.1 mb 0.00 in0.0 mm 0.00 in/hr0.0 mm/hr 0.00 in0.0 mm
06:57 AM 30.6°F-0.8°C 19.8°F-6.8°C 64% 4.2 mph NNW6.8 kmh NNW 6.9 mph11.1 kmh 30.41 in1029.8 mb 0.00 in0.0 mm 0.00 in/hr0.0 mm/hr 0.00 in0.0 mm
06:52 AM 30.6°F-0.8°C 19.8°F-6.8°C 64% 4.8 mph NNW7.7 kmh NNW 6.9 mph11.1 kmh 30.41 in1029.8 mb 0.00 in0.0 mm 0.00 in/hr0.0 mm/hr 0.00 in0.0 mm
06:47 AM 30.6°F-0.8°C 19.8°F-6.8°C 64% 5.8 mph N9.3 kmh N 6.9 mph11.1 kmh 30.41 in1029.8 mb 0.00 in0.0 mm 0.00 in/hr0.0 mm/hr 0.00 in0.0 mm
06:42 AM 30.6°F-0.8°C 20.2°F-6.6°C 65% 3.8 mph NW6.1 kmh NW 6.0 mph9.7 kmh 30.41 in1029.8 mb 0.00 in0.0 mm 0.00 in/hr0.0 mm/hr 0.00 in0.0 mm
06:37 AM 30.6°F-0.8°C 19.8°F-6.8°C 64% 4.7 mph NNE7.6 kmh NNE 4.9 mph7.9 kmh 30.41 in1029.8 mb 0.00 in0.0 mm 0.00 in/hr0.0 mm/hr 0.00 in0.0 mm
06:32 AM 30.6°F-0.8°C 20.2°F-6.6°C 65% 3.4 mph NNW5.5 kmh NNW 4.5 mph7.2 kmh 30.41 in1029.8 mb 0.00 in0.0 mm 0.00 in/hr0.0 mm/hr 0.00 in0.0 mm
06:27 AM 30.6°F-0.8°C 20.5°F-6.4°C 66% 2.2 mph N3.5 kmh N 4.5 mph7.2 kmh 30.41 in1029.8 mb 0.00 in0.0 mm 0.00 in/hr0.0 mm/hr 0.00 in0.0 mm
06:22 AM 30.6°F-0.8°C 20.2°F-6.6°C 65% 3.3 mph N5.3 kmh N 6.9 mph11.1 kmh 30.41 in1029.8 mb 0.00 in0.0 mm 0.00 in/hr0.0 mm/hr 0.00 in0.0 mm
06:17 AM 30.6°F-0.8°C 20.2°F-6.6°C 65% 4.4 mph N7.1 kmh N 6.9 mph11.1 kmh 30.41 in1029.8 mb 0.00 in0.0 mm 0.00 in/hr0.0 mm/hr 0.00 in0.0 mm
06:12 AM 30.6°F-0.8°C 20.2°F-6.6°C 65% 3.5 mph NW5.6 kmh NW 6.9 mph11.1 kmh 30.41 in1029.8 mb 0.00 in0.0 mm 0.00 in/hr0.0 mm/hr 0.00 in0.0 mm
06:07 AM 30.6°F-0.8°C 20.2°F-6.6°C 65% 3.1 mph NE5.0 kmh NE 6.3 mph10.1 kmh 30.41 in1029.8 mb 0.00 in0.0 mm 0.00 in/hr0.0 mm/hr 0.00 in0.0 mm
06:02 AM 30.6°F-0.8°C 20.2°F-6.6°C 65% 2.5 mph N4.0 kmh N 6.3 mph10.1 kmh 30.41 in1029.8 mb 0.00 in0.0 mm 0.00 in/hr0.0 mm/hr 0.00 in0.0 mm
05:57 AM 30.6°F-0.8°C 20.2°F-6.6°C 65% 2.2 mph N3.5 kmh N 6.0 mph9.7 kmh 30.41 in1029.8 mb 0.00 in0.0 mm 0.00 in/hr0.0 mm/hr 0.00 in0.0 mm
05:52 AM 30.6°F-0.8°C 20.2°F-6.6°C 65% 2.4 mph NW3.9 kmh NW 6.0 mph9.7 kmh 30.42 in1030.1 mb 0.00 in0.0 mm 0.00 in/hr0.0 mm/hr 0.00 in0.0 mm
05:47 AM 30.6°F-0.8°C 20.2°F-6.6°C 65% 2.3 mph N3.7 kmh N 4.0 mph6.4 kmh 30.41 in1029.8 mb 0.00 in0.0 mm 0.00 in/hr0.0 mm/hr 0.00 in0.0 mm
05:42 AM 30.6°F-0.8°C 20.2°F-6.6°C 65% 3.3 mph NNW5.3 kmh NNW 3.6 mph5.8 kmh 30.41 in1029.8 mb 0.00 in0.0 mm 0.00 in/hr0.0 mm/hr 0.00 in0.0 mm
05:37 AM 30.6°F-0.8°C 20.2°F-6.6°C 65% 2.2 mph 3.5 kmh 4.7 mph7.6 kmh 30.41 in1029.8 mb 0.00 in0.0 mm 0.00 in/hr0.0 mm/hr 0.00 in0.0 mm
05:32 AM 30.8°F-0.7°C 20.3°F-6.5°C 65% 4.1 mph N6.6 kmh N 5.8 mph9.3 kmh 30.41 in1029.8 mb 0.00 in0.0 mm 0.00 in/hr0.0 mm/hr 0.00 in0.0 mm
05:27 AM 30.8°F-0.7°C 20.3°F-6.5°C 65% 3.7 mph 6.0 kmh 5.8 mph9.3 kmh 30.41 in1029.8 mb 0.00 in0.0 mm 0.00 in/hr0.0 mm/hr 0.00 in0.0 mm
05:22 AM 30.8°F-0.7°C 20.3°F-6.5°C 65% 3.7 mph NNW6.0 kmh NNW 4.7 mph7.6 kmh 30.41 in1029.8 mb 0.00 in0.0 mm 0.00 in/hr0.0 mm/hr 0.00 in0.0 mm
05:17 AM 30.8°F-0.7°C 20.7°F-6.3°C 66% 3.4 mph NNW5.5 kmh NNW 4.0 mph6.4 kmh 30.41 in1029.8 mb 0.00 in0.0 mm 0.00 in/hr0.0 mm/hr 0.00 in0.0 mm
05:12 AM 30.8°F-0.7°C 20.7°F-6.3°C 66% 3.4 mph NW5.5 kmh NW 4.3 mph6.9 kmh 30.41 in1029.8 mb 0.00 in0.0 mm 0.00 in/hr0.0 mm/hr 0.00 in0.0 mm
05:07 AM 30.8°F-0.7°C 20.7°F-6.3°C 66% 3.2 mph NNW5.1 kmh NNW 5.4 mph8.7 kmh 30.41 in1029.8 mb 0.00 in0.0 mm 0.00 in/hr0.0 mm/hr 0.00 in0.0 mm
05:02 AM 31.0°F-0.6°C 20.9°F-6.2°C 66% 2.3 mph NW3.7 kmh NW 5.4 mph8.7 kmh 30.41 in1029.8 mb 0.00 in0.0 mm 0.00 in/hr0.0 mm/hr 0.00 in0.0 mm
04:57 AM 31.0°F-0.6°C 20.9°F-6.2°C 66% 5.4 mph 8.7 kmh 5.4 mph8.7 kmh 30.41 in1029.8 mb 0.00 in0.0 mm 0.00 in/hr0.0 mm/hr 0.00 in0.0 mm
04:52 AM 31.0°F-0.6°C 20.9°F-6.2°C 66% 1.6 mph NNW2.6 kmh NNW 4.0 mph6.4 kmh 30.41 in1029.8 mb 0.00 in0.0 mm 0.00 in/hr0.0 mm/hr 0.00 in0.0 mm
04:47 AM 31.0°F-0.6°C 20.9°F-6.2°C 66% 3.4 mph NNW5.5 kmh NNW 5.4 mph8.7 kmh 30.41 in1029.8 mb 0.00 in0.0 mm 0.00 in/hr0.0 mm/hr 0.00 in0.0 mm
04:42 AM 30.8°F-0.7°C 20.7°F-6.3°C 66% 4.4 mph N7.1 kmh N 5.4 mph8.7 kmh 30.41 in1029.8 mb 0.00 in0.0 mm 0.00 in/hr0.0 mm/hr 0.00 in0.0 mm
04:37 AM 30.8°F-0.7°C 20.7°F-6.3°C 66% 3.4 mph NNW5.5 kmh NNW 5.1 mph8.2 kmh 30.41 in1029.8 mb 0.00 in0.0 mm 0.00 in/hr0.0 mm/hr 0.00 in0.0 mm
04:32 AM 30.8°F-0.7°C 20.7°F-6.3°C 66% 3.5 mph NNW5.6 kmh NNW 5.1 mph8.2 kmh 30.41 in1029.8 mb 0.00 in0.0 mm 0.00 in/hr0.0 mm/hr 0.00 in0.0 mm
04:27 AM 30.8°F-0.7°C 20.7°F-6.3°C 66% 2.8 mph NNW4.5 kmh NNW 5.1 mph8.2 kmh 30.41 in1029.8 mb 0.00 in0.0 mm 0.00 in/hr0.0 mm/hr 0.00 in0.0 mm
04:22 AM 30.8°F-0.7°C 20.7°F-6.3°C 66% 4.5 mph 7.2 kmh 5.1 mph8.2 kmh 30.41 in1029.8 mb 0.00 in0.0 mm 0.00 in/hr0.0 mm/hr 0.00 in0.0 mm
04:17 AM 30.8°F-0.7°C 20.7°F-6.3°C 66% 1.3 mph 2.1 kmh 4.0 mph6.4 kmh 30.41 in1029.8 mb 0.00 in0.0 mm 0.00 in/hr0.0 mm/hr 0.00 in0.0 mm
04:12 AM 31.0°F-0.6°C 20.9°F-6.2°C 66% 2.5 mph 4.0 kmh 6.3 mph10.1 kmh 30.41 in1029.8 mb 0.00 in0.0 mm 0.00 in/hr0.0 mm/hr 0.00 in0.0 mm
04:07 AM 31.0°F-0.6°C 21.2°F-6.0°C 67% 5.5 mph 8.9 kmh 6.3 mph10.1 kmh 30.41 in1029.8 mb 0.00 in0.0 mm 0.00 in/hr0.0 mm/hr 0.00 in0.0 mm
04:02 AM 31.0°F-0.6°C 20.9°F-6.2°C 66% 2.7 mph N4.3 kmh N 4.5 mph7.2 kmh 30.41 in1029.8 mb 0.00 in0.0 mm 0.00 in/hr0.0 mm/hr 0.00 in0.0 mm
03:57 AM 31.1°F-0.5°C 21.1°F-6.1°C 66% 2.7 mph 4.3 kmh 5.1 mph8.2 kmh 30.41 in1029.8 mb 0.00 in0.0 mm 0.00 in/hr0.0 mm/hr 0.00 in0.0 mm
03:52 AM 31.1°F-0.5°C 21.1°F-6.1°C 66% 3.5 mph N5.6 kmh N 5.1 mph8.2 kmh 30.41 in1029.8 mb 0.00 in0.0 mm 0.00 in/hr0.0 mm/hr 0.00 in0.0 mm
03:47 AM 31.3°F-0.4°C 21.2°F-6.0°C 66% 2.8 mph NNW4.5 kmh NNW 5.1 mph8.2 kmh 30.41 in1029.8 mb 0.00 in0.0 mm 0.00 in/hr0.0 mm/hr 0.00 in0.0 mm
03:42 AM 31.3°F-0.4°C 21.2°F-6.0°C 66% 0.9 mph 1.4 kmh 4.7 mph7.6 kmh 30.42 in1030.1 mb 0.00 in0.0 mm 0.00 in/hr0.0 mm/hr 0.00 in0.0 mm
03:37 AM 31.3°F-0.4°C 21.2°F-6.0°C 66% 2.7 mph NNE4.3 kmh NNE 5.8 mph9.3 kmh 30.41 in1029.8 mb 0.00 in0.0 mm 0.00 in/hr0.0 mm/hr 0.00 in0.0 mm
03:32 AM 31.3°F-0.4°C 21.2°F-6.0°C 66% 3.0 mph N4.8 kmh N 8.5 mph13.7 kmh 30.41 in1029.8 mb 0.00 in0.0 mm 0.00 in/hr0.0 mm/hr 0.00 in0.0 mm
03:27 AM 31.3°F-0.4°C 21.6°F-5.8°C 67% 3.3 mph 5.3 kmh 8.5 mph13.7 kmh 30.41 in1029.8 mb 0.00 in0.0 mm 0.00 in/hr0.0 mm/hr 0.00 in0.0 mm
03:22 AM 31.3°F-0.4°C 21.2°F-6.0°C 66% 3.5 mph N5.6 kmh N 5.4 mph8.7 kmh 30.41 in1029.8 mb 0.00 in0.0 mm 0.00 in/hr0.0 mm/hr 0.00 in0.0 mm
03:17 AM 31.3°F-0.4°C 21.6°F-5.8°C 67% 3.7 mph N6.0 kmh N 6.9 mph11.1 kmh 30.41 in1029.8 mb 0.00 in0.0 mm 0.00 in/hr0.0 mm/hr 0.00 in0.0 mm
03:12 AM 31.3°F-0.4°C 21.6°F-5.8°C 67% 4.7 mph NNW7.6 kmh NNW 6.9 mph11.1 kmh 30.42 in1030.1 mb 0.00 in0.0 mm 0.00 in/hr0.0 mm/hr 0.00 in0.0 mm
03:07 AM 31.3°F-0.4°C 21.6°F-5.8°C 67% 3.2 mph N5.1 kmh N 6.3 mph10.1 kmh 30.42 in1030.1 mb 0.00 in0.0 mm 0.00 in/hr0.0 mm/hr 0.00 in0.0 mm
03:02 AM 31.1°F-0.5°C 21.8°F-5.7°C 68% 3.4 mph N5.5 kmh N 6.3 mph10.1 kmh 30.42 in1030.1 mb 0.00 in0.0 mm 0.00 in/hr0.0 mm/hr 0.00 in0.0 mm
02:57 AM 31.1°F-0.5°C 21.8°F-5.7°C 68% 4.2 mph N6.8 kmh N 6.9 mph11.1 kmh 30.42 in1030.1 mb 0.00 in0.0 mm 0.00 in/hr0.0 mm/hr 0.00 in0.0 mm
02:52 AM 31.3°F-0.4°C 22.0°F-5.6°C 68% 3.0 mph 4.8 kmh 6.9 mph11.1 kmh 30.42 in1030.1 mb 0.00 in0.0 mm 0.00 in/hr0.0 mm/hr 0.00 in0.0 mm
02:47 AM 31.3°F-0.4°C 22.3°F-5.4°C 69% 2.3 mph N3.7 kmh N 4.3 mph6.9 kmh 30.42 in1030.1 mb 0.00 in0.0 mm 0.00 in/hr0.0 mm/hr 0.00 in0.0 mm
02:42 AM 31.3°F-0.4°C 22.3°F-5.4°C 69% 1.9 mph 3.1 kmh 8.3 mph13.4 kmh 30.42 in1030.1 mb 0.00 in0.0 mm 0.00 in/hr0.0 mm/hr 0.00 in0.0 mm
02:37 AM 31.3°F-0.4°C 22.3°F-5.4°C 69% 1.8 mph N2.9 kmh N 8.3 mph13.4 kmh 30.42 in1030.1 mb 0.00 in0.0 mm 0.00 in/hr0.0 mm/hr 0.00 in0.0 mm
02:32 AM 31.3°F-0.4°C 22.3°F-5.4°C 69% 2.5 mph N4.0 kmh N 4.9 mph7.9 kmh 30.42 in1030.1 mb 0.00 in0.0 mm 0.00 in/hr0.0 mm/hr 0.00 in0.0 mm
02:27 AM 31.3°F-0.4°C 22.3°F-5.4°C 69% 2.3 mph NNE3.7 kmh NNE 4.3 mph6.9 kmh 30.42 in1030.1 mb 0.00 in0.0 mm 0.00 in/hr0.0 mm/hr 0.00 in0.0 mm
02:22 AM 31.3°F-0.4°C 22.3°F-5.4°C 69% 1.2 mph N1.9 kmh N 5.1 mph8.2 kmh 30.42 in1030.1 mb 0.00 in0.0 mm 0.00 in/hr0.0 mm/hr 0.00 in0.0 mm
02:17 AM 31.3°F-0.4°C 22.3°F-5.4°C 69% 2.6 mph NNW4.2 kmh NNW 5.1 mph8.2 kmh 30.42 in1030.1 mb 0.00 in0.0 mm 0.00 in/hr0.0 mm/hr 0.00 in0.0 mm
02:12 AM 31.3°F-0.4°C 22.7°F-5.2°C 70% 2.0 mph N3.2 kmh N 3.1 mph5.0 kmh 30.42 in1030.1 mb 0.00 in0.0 mm 0.00 in/hr0.0 mm/hr 0.00 in0.0 mm
02:07 AM 31.3°F-0.4°C 22.3°F-5.4°C 69% 1.4 mph N2.3 kmh N 2.9 mph4.7 kmh 30.42 in1030.1 mb 0.00 in0.0 mm 0.00 in/hr0.0 mm/hr 0.00 in0.0 mm
02:02 AM 31.3°F-0.4°C 22.7°F-5.2°C 70% 2.3 mph 3.7 kmh 3.1 mph5.0 kmh 30.42 in1030.1 mb 0.00 in0.0 mm 0.00 in/hr0.0 mm/hr 0.00 in0.0 mm
01:57 AM 31.3°F-0.4°C 22.7°F-5.2°C 70% 2.1 mph NNW3.4 kmh NNW 4.7 mph7.6 kmh 30.42 in1030.1 mb 0.00 in0.0 mm 0.00 in/hr0.0 mm/hr 0.00 in0.0 mm
01:52 AM 31.3°F-0.4°C 22.7°F-5.2°C 70% 2.5 mph N4.0 kmh N 4.7 mph7.6 kmh 30.42 in1030.1 mb 0.00 in0.0 mm 0.00 in/hr0.0 mm/hr 0.00 in0.0 mm
01:47 AM 31.3°F-0.4°C 22.7°F-5.2°C 70% 2.1 mph NW3.4 kmh NW 3.4 mph5.5 kmh 30.42 in1030.1 mb 0.00 in0.0 mm 0.00 in/hr0.0 mm/hr 0.00 in0.0 mm
01:42 AM 31.3°F-0.4°C 22.7°F-5.2°C 70% 2.4 mph NNW3.9 kmh NNW 3.8 mph6.1 kmh 30.43 in1030.5 mb 0.00 in0.0 mm 0.00 in/hr0.0 mm/hr 0.00 in0.0 mm
01:37 AM 31.3°F-0.4°C 22.7°F-5.2°C 70% 3.7 mph NNW6.0 kmh NNW 3.8 mph6.1 kmh 30.43 in1030.5 mb 0.00 in0.0 mm 0.00 in/hr0.0 mm/hr 0.00 in0.0 mm
01:32 AM 31.3°F-0.4°C 22.7°F-5.2°C 70% 1.6 mph 2.6 kmh 2.5 mph4.0 kmh 30.44 in1030.8 mb 0.00 in0.0 mm 0.00 in/hr0.0 mm/hr 0.00 in0.0 mm
01:27 AM 31.3°F-0.4°C 22.7°F-5.2°C 70% 1.8 mph NW2.9 kmh NW 3.1 mph5.0 kmh 30.43 in1030.5 mb 0.00 in0.0 mm 0.00 in/hr0.0 mm/hr 0.00 in0.0 mm
01:22 AM 31.5°F-0.3°C 22.9°F-5.1°C 70% 1.9 mph 3.1 kmh 3.1 mph5.0 kmh 30.43 in1030.5 mb 0.00 in0.0 mm 0.00 in/hr0.0 mm/hr 0.00 in0.0 mm
01:17 AM 31.5°F-0.3°C 23.2°F-4.9°C 71% 1.8 mph N2.9 kmh N 2.7 mph4.3 kmh 30.43 in1030.5 mb 0.00 in0.0 mm 0.00 in/hr0.0 mm/hr 0.00 in0.0 mm
01:12 AM 31.3°F-0.4°C 23.1°F-4.9°C 71% 1.3 mph N2.1 kmh N 2.7 mph4.3 kmh 30.43 in1030.5 mb 0.00 in0.0 mm 0.00 in/hr0.0 mm/hr 0.00 in0.0 mm
01:07 AM 31.3°F-0.4°C 23.1°F-4.9°C 71% 1.5 mph N2.4 kmh N 2.7 mph4.3 kmh 30.43 in1030.5 mb 0.00 in0.0 mm 0.00 in/hr0.0 mm/hr 0.00 in0.0 mm
01:02 AM 31.1°F-0.5°C 22.9°F-5.1°C 71% 2.0 mph NW3.2 kmh NW 2.9 mph4.7 kmh 30.43 in1030.5 mb 0.00 in0.0 mm 0.00 in/hr0.0 mm/hr 0.00 in0.0 mm
12:57 AM 31.1°F-0.5°C 22.9°F-5.1°C 71% 1.6 mph N2.6 kmh N 2.9 mph4.7 kmh 30.43 in1030.5 mb 0.00 in0.0 mm 0.00 in/hr0.0 mm/hr 0.00 in0.0 mm
12:52 AM 30.8°F-0.7°C 22.8°F-5.1°C 72% 1.6 mph NNW2.6 kmh NNW 2.9 mph4.7 kmh 30.43 in1030.5 mb 0.00 in0.0 mm 0.00 in/hr0.0 mm/hr 0.00 in0.0 mm
12:47 AM 30.6°F-0.8°C 22.6°F-5.2°C 72% 0.6 mph N1.0 kmh N 2.0 mph3.2 kmh 30.44 in1030.8 mb 0.00 in0.0 mm 0.00 in/hr0.0 mm/hr 0.00 in0.0 mm
12:42 AM 30.6°F-0.8°C 22.6°F-5.2°C 72% 0.8 mph N1.3 kmh N 2.0 mph3.2 kmh 30.44 in1030.8 mb 0.00 in0.0 mm 0.00 in/hr0.0 mm/hr 0.00 in0.0 mm
12:37 AM 30.6°F-0.8°C 22.6°F-5.2°C 72% 0.4 mph NNW0.6 kmh NNW 1.1 mph1.8 kmh 30.44 in1030.8 mb 0.00 in0.0 mm 0.00 in/hr0.0 mm/hr 0.00 in0.0 mm
12:32 AM 30.6°F-0.8°C 22.3°F-5.4°C 71% 0.6 mph NW1.0 kmh NW 1.8 mph2.9 kmh 30.44 in1030.8 mb 0.00 in0.0 mm 0.00 in/hr0.0 mm/hr 0.00 in0.0 mm
12:27 AM 31.0°F-0.6°C 22.3°F-5.4°C 70% 0.3 mph NW0.5 kmh NW 3.4 mph5.5 kmh 30.44 in1030.8 mb 0.00 in0.0 mm 0.00 in/hr0.0 mm/hr 0.00 in0.0 mm
12:22 AM 31.1°F-0.5°C 22.5°F-5.3°C 70% 0.9 mph WNW1.4 kmh WNW 3.4 mph5.5 kmh 30.44 in1030.8 mb 0.00 in0.0 mm 0.00 in/hr0.0 mm/hr 0.00 in0.0 mm
12:17 AM 31.3°F-0.4°C 22.7°F-5.2°C 70% 0.6 mph NNW1.0 kmh NNW 1.3 mph2.1 kmh 30.45 in1031.2 mb 0.00 in0.0 mm 0.00 in/hr0.0 mm/hr 0.00 in0.0 mm
12:12 AM 31.7°F-0.2°C 23.0°F-5.0°C 70% 0.6 mph NW1.0 kmh NW 1.3 mph2.1 kmh 30.45 in1031.2 mb 0.00 in0.0 mm 0.00 in/hr0.0 mm/hr 0.00 in0.0 mm
12:07 AM 32.0°F0.0°C 23.0°F-5.0°C 69% 0.3 mph WNW0.5 kmh WNW 2.0 mph3.2 kmh 30.45 in1031.2 mb 0.00 in0.0 mm 0.00 in/hr0.0 mm/hr 0.00 in0.0 mm
12:02 AM 32.4°F0.2°C 23.8°F-4.6°C 70% 0.4 mph WNW0.6 kmh WNW 3.4 mph5.5 kmh 30.45 in1031.2 mb 0.00 in0.0 mm 0.00 in/hr0.0 mm/hr 0.00 in0.0 mm